createdAt,value
2023-02-12T00:00:05.339Z,94383.00
2023-02-12T00:01:05.418Z,94387.00
2023-02-12T00:02:05.526Z,94388.00
2023-02-12T00:03:05.541Z,94388.00
2023-02-12T00:04:05.593Z,94392.00
2023-02-12T00:05:05.655Z,94394.00
2023-02-12T00:06:05.740Z,94394.00
2023-02-12T00:07:05.781Z,94394.00
2023-02-12T00:08:05.838Z,94394.00
2023-02-12T00:09:05.908Z,94390.00
2023-02-12T00:10:05.956Z,94390.00
2023-02-12T00:11:06.036Z,94388.00
2023-02-12T00:12:06.068Z,94390.00
2023-02-12T00:13:06.151Z,94392.00
2023-02-12T00:14:06.203Z,94394.00
2023-02-12T00:15:06.263Z,94396.00
2023-02-12T00:16:06.367Z,94396.00
2023-02-12T00:17:06.393Z,94400.00
2023-02-12T00:18:06.457Z,94400.00
2023-02-12T00:19:06.523Z,94400.00
2023-02-12T00:20:06.583Z,94394.00
2023-02-12T00:21:06.651Z,94392.00
2023-02-12T00:22:06.708Z,94392.00
2023-02-12T00:23:06.783Z,94392.00
2023-02-12T00:24:06.828Z,94390.00
2023-02-12T00:25:06.882Z,94390.00
2023-02-12T00:27:07.004Z,94388.00
2023-02-12T00:28:07.116Z,94390.00
2023-02-12T00:29:07.146Z,94388.00
2023-02-12T00:30:07.195Z,94387.00
2023-02-12T00:31:07.371Z,94383.00
2023-02-12T00:48:08.302Z,94402.00
2023-02-12T00:49:08.363Z,94404.00
2023-02-12T00:50:08.433Z,94404.00
2023-02-12T00:51:08.491Z,94408.00
2023-02-12T00:52:08.562Z,94408.00
2023-02-12T00:53:08.614Z,94410.00
2023-02-12T00:54:08.678Z,94410.00
2023-02-12T00:55:08.743Z,94410.00
2023-02-12T00:56:08.806Z,94410.00
2023-02-12T00:57:08.875Z,94408.00
2023-02-12T00:58:08.940Z,94408.00
2023-02-12T00:59:09.006Z,94402.00
2023-02-12T01:00:09.067Z,94398.00
2023-02-12T01:01:09.193Z,94390.00
2023-02-12T01:02:09.198Z,94390.00
2023-02-12T01:03:09.272Z,94387.00
2023-02-12T01:04:09.338Z,94387.00
2023-02-12T01:05:09.594Z,94388.00
2023-02-12T01:06:09.505Z,94392.00
2023-02-12T01:07:09.536Z,94390.00
2023-02-12T01:08:09.589Z,94392.00
2023-02-12T01:09:09.654Z,94390.00
2023-02-12T01:10:09.719Z,94388.00
2023-02-12T01:11:09.783Z,94390.00
2023-02-12T01:12:09.840Z,94390.00
2023-02-12T01:13:09.903Z,94390.00
2023-02-12T01:14:09.943Z,94390.00
2023-02-12T01:15:10.001Z,94388.00
2023-02-12T01:16:10.117Z,94390.00
2023-02-12T01:17:10.117Z,94390.00
2023-02-12T01:18:10.171Z,94388.00
2023-02-12T01:19:10.231Z,94388.00
2023-02-12T01:20:10.295Z,94385.00
2023-02-12T01:21:10.354Z,94381.00
2023-02-12T01:22:10.422Z,94381.00
2023-02-12T01:23:10.485Z,94379.00
2023-02-12T01:24:10.545Z,94379.00
2023-02-12T01:25:10.612Z,94379.00
2023-02-12T01:26:10.742Z,94381.00
2023-02-12T01:27:10.734Z,94385.00
2023-02-12T01:28:10.833Z,94379.00
2023-02-12T01:29:10.866Z,94375.00
2023-02-12T01:30:10.933Z,94375.00
2023-02-12T01:31:11.122Z,94365.00
2023-02-12T01:32:11.139Z,94365.00
2023-02-12T01:33:11.128Z,94365.00
2023-02-12T01:34:11.185Z,94365.00
2023-02-12T02:40:15.161Z,94334.00
2023-02-12T02:41:15.224Z,94336.00
2023-02-12T02:42:15.282Z,94334.00
2023-02-12T02:43:15.345Z,94332.00
2023-02-12T02:44:15.406Z,94332.00
2023-02-12T02:45:15.467Z,94330.00
2023-02-12T02:46:15.579Z,94328.00
2023-02-12T02:47:15.594Z,94330.00
2023-02-12T02:48:15.654Z,94326.00
2023-02-12T02:49:15.724Z,94328.00
2023-02-12T02:50:15.768Z,94330.00
2023-02-12T02:51:15.826Z,94332.00
2023-02-12T02:52:15.884Z,94332.00
2023-02-12T02:53:15.946Z,94334.00
2023-02-12T02:54:16.008Z,94340.00
2023-02-12T02:55:16.061Z,94342.00
2023-02-12T02:56:16.131Z,94343.00
2023-02-12T02:57:16.174Z,94345.00
2023-02-12T02:58:16.240Z,94347.00
2023-02-12T02:59:16.331Z,94349.00
2023-02-12T03:00:16.371Z,94349.00
2023-02-12T03:01:16.501Z,94349.00
2023-02-12T03:02:16.490Z,94351.00
2023-02-12T03:03:16.582Z,94351.00
2023-02-12T03:04:16.613Z,94351.00
2023-02-12T03:05:16.677Z,94351.00
2023-02-12T03:06:16.738Z,94351.00
2023-02-12T03:07:16.804Z,94353.00
2023-02-12T03:08:16.872Z,94351.00
2023-02-12T03:09:16.942Z,94349.00
2023-02-12T03:10:17.003Z,94351.00
2023-02-12T03:11:17.062Z,94349.00
2023-02-12T03:12:17.119Z,94347.00
2023-02-12T03:13:17.185Z,94345.00
2023-02-12T03:14:17.265Z,94345.00
2023-02-12T03:15:17.334Z,94347.00
2023-02-12T03:16:17.404Z,94349.00
2023-02-12T03:17:17.448Z,94351.00
2023-02-12T03:18:17.501Z,94353.00
2023-02-12T03:19:17.569Z,94353.00
2023-02-12T03:20:17.643Z,94355.00
2023-02-12T03:21:17.702Z,94355.00
2023-02-12T03:22:17.767Z,94355.00
2023-02-12T03:23:17.825Z,94355.00
2023-02-12T03:24:17.890Z,94353.00
2023-02-12T03:25:17.967Z,94353.00
2023-02-12T03:26:18.025Z,94351.00
2023-02-12T03:27:18.095Z,94351.00
2023-02-12T03:28:18.225Z,94351.00
2023-02-12T03:29:18.210Z,94351.00
2023-02-12T03:30:18.283Z,94347.00
2023-02-12T03:31:18.382Z,94349.00
2023-02-12T03:32:18.397Z,94349.00
2023-02-12T03:33:18.454Z,94347.00
2023-02-12T03:34:18.518Z,94353.00
2023-02-12T03:35:18.582Z,94349.00
2023-02-12T03:36:18.650Z,94351.00
2023-02-12T03:37:18.725Z,94355.00
2023-02-12T03:38:18.794Z,94353.00
2023-02-12T03:39:18.848Z,94357.00
2023-02-12T03:40:18.909Z,94353.00
2023-02-12T03:41:18.963Z,94353.00
2023-02-12T03:42:19.026Z,94355.00
2023-02-12T03:43:19.076Z,94355.00
2023-02-12T03:44:19.121Z,94357.00
2023-02-12T03:45:19.180Z,94361.00
2023-02-12T03:46:19.305Z,94361.00
2023-02-12T03:47:19.308Z,94359.00
2023-02-12T03:48:19.359Z,94361.00
2023-02-12T03:49:19.426Z,94361.00
2023-02-12T03:50:19.494Z,94363.00
2023-02-12T03:51:19.562Z,94373.00
2023-02-12T03:52:19.638Z,94375.00
2023-02-12T03:53:19.697Z,94373.00
2023-02-12T03:54:19.761Z,94365.00
2023-02-12T03:55:19.820Z,94365.00
2023-02-12T03:56:19.893Z,94361.00
2023-02-12T03:57:19.958Z,94361.00
2023-02-12T03:58:20.016Z,94363.00
2023-02-12T03:59:20.081Z,94361.00
2023-02-12T04:00:20.160Z,94365.00
2023-02-12T04:01:20.330Z,94373.00
2023-02-12T04:02:20.311Z,94377.00
2023-02-12T04:03:20.344Z,94377.00
2023-02-12T04:04:20.434Z,94377.00
2023-02-12T04:05:20.460Z,94375.00
2023-02-12T04:06:20.517Z,94373.00
2023-02-12T04:07:20.575Z,94375.00
2023-02-12T04:08:20.638Z,94375.00
2023-02-12T04:09:20.697Z,94377.00
2023-02-12T04:10:20.763Z,94377.00
2023-02-12T04:11:20.823Z,94377.00
2023-02-12T04:12:20.886Z,94377.00
2023-02-12T04:13:20.944Z,94377.00
2023-02-12T04:14:20.996Z,94377.00
2023-02-12T04:15:21.054Z,94379.00
2023-02-12T04:16:21.163Z,94379.00
2023-02-12T04:17:21.182Z,94381.00
2023-02-12T04:18:21.261Z,94383.00
2023-02-12T04:19:21.293Z,94383.00
2023-02-12T04:20:21.349Z,94385.00
2023-02-12T04:21:21.410Z,94385.00
2023-02-12T04:22:21.477Z,94385.00
2023-02-12T04:23:21.545Z,94387.00
2023-02-12T04:24:21.602Z,94387.00
2023-02-12T04:25:21.668Z,94388.00
2023-02-12T04:26:21.733Z,94390.00
2023-02-12T04:27:21.778Z,94394.00
2023-02-12T04:28:21.890Z,94396.00
2023-02-12T04:29:21.900Z,94396.00
2023-02-12T04:30:21.988Z,94394.00
2023-02-12T04:31:22.481Z,94398.00
2023-02-12T04:32:22.064Z,94400.00
2023-02-12T04:33:22.142Z,94400.00
2023-02-12T04:34:22.183Z,94400.00
2023-02-12T04:35:22.232Z,94398.00
2023-02-12T04:36:22.285Z,94402.00
2023-02-12T04:37:22.340Z,94398.00
2023-02-12T04:38:22.405Z,94402.00
2023-02-12T04:39:22.453Z,94402.00
2023-02-12T04:40:22.520Z,94396.00
2023-02-12T04:41:22.578Z,94402.00
2023-02-12T04:42:22.634Z,94404.00
2023-02-12T04:43:22.699Z,94404.00
2023-02-12T04:44:22.761Z,94406.00
2023-02-12T04:45:22.831Z,94406.00
2023-02-12T04:46:22.907Z,94408.00
2023-02-12T04:47:22.932Z,94410.00
2023-02-12T04:48:22.984Z,94412.00
2023-02-12T04:49:23.049Z,94410.00
2023-02-12T04:50:23.120Z,94416.00
2023-02-12T04:51:23.158Z,94414.00
2023-02-12T04:52:23.238Z,94416.00
2023-02-12T04:53:23.285Z,94422.00
2023-02-12T04:54:23.353Z,94422.00
2023-02-12T04:55:23.423Z,94418.00
2023-02-12T04:56:23.488Z,94420.00
2023-02-12T04:57:23.554Z,94424.00
2023-02-12T04:58:23.610Z,94422.00
2023-02-12T04:59:23.669Z,94426.00
2023-02-12T05:00:23.744Z,94422.00
2023-02-12T05:01:23.865Z,94424.00
2023-02-12T05:02:23.869Z,94424.00
2023-02-12T05:03:23.937Z,94426.00
2023-02-12T05:04:23.991Z,94426.00
2023-02-12T05:05:24.187Z,94426.00
2023-02-12T05:06:24.144Z,94428.00
2023-02-12T05:07:24.182Z,94430.00
2023-02-12T05:08:24.244Z,94430.00
2023-02-12T05:09:24.308Z,94428.00
2023-02-12T05:10:24.375Z,94428.00
2023-02-12T05:11:24.428Z,94426.00
2023-02-12T05:12:24.492Z,94426.00
2023-02-12T05:13:24.548Z,94426.00
2023-02-12T05:14:24.608Z,94428.00
2023-02-12T05:23:25.177Z,94430.00
2023-02-12T05:24:25.232Z,94428.00
2023-02-12T05:25:25.291Z,94430.00
2023-02-12T05:26:25.363Z,94428.00
2023-02-12T05:27:25.427Z,94430.00
2023-02-12T05:28:25.542Z,94430.00
2023-02-12T05:29:25.553Z,94432.00
2023-02-12T05:30:25.613Z,94434.00
2023-02-12T05:31:25.805Z,94437.00
2023-02-12T05:32:25.736Z,94439.00
2023-02-12T05:33:25.796Z,94441.00
2023-02-12T05:34:25.864Z,94443.00
2023-02-12T05:35:25.919Z,94443.00
2023-02-12T05:36:25.978Z,94445.00
2023-02-12T05:37:26.044Z,94445.00
2023-02-12T05:38:26.110Z,94449.00
2023-02-12T05:39:26.159Z,94447.00
2023-02-12T05:40:26.229Z,94449.00
2023-02-12T05:41:26.300Z,94451.00
2023-02-12T05:42:26.368Z,94449.00
2023-02-12T05:43:26.424Z,94453.00
2023-02-12T05:44:26.495Z,94451.00
2023-02-12T05:45:26.544Z,94453.00
2023-02-12T05:46:26.693Z,94451.00
2023-02-12T05:47:26.674Z,94453.00
2023-02-12T05:48:26.740Z,94455.00
2023-02-12T05:49:26.794Z,94455.00
2023-02-12T05:50:26.854Z,94455.00
2023-02-12T05:51:26.917Z,94457.00
2023-02-12T05:52:26.983Z,94457.00
2023-02-12T05:53:27.048Z,94457.00
2023-02-12T05:54:27.114Z,94457.00
2023-02-12T05:55:27.174Z,94457.00
2023-02-12T05:56:27.246Z,94459.00
2023-02-12T05:57:27.307Z,94459.00
2023-02-12T05:58:27.376Z,94459.00
2023-02-12T05:59:27.424Z,94459.00
2023-02-12T06:00:27.481Z,94457.00
2023-02-12T06:01:27.562Z,94457.00
2023-02-12T06:02:27.732Z,94457.00
2023-02-12T06:03:27.655Z,94457.00
2023-02-12T06:04:27.822Z,94459.00
2023-02-12T06:05:27.774Z,94459.00
2023-02-12T06:06:27.832Z,94461.00
2023-02-12T06:07:27.894Z,94461.00
2023-02-12T06:08:27.947Z,94463.00
2023-02-12T06:09:28.019Z,94463.00
2023-02-12T06:10:28.070Z,94465.00
2023-02-12T06:11:28.129Z,94467.00
2023-02-12T06:12:28.193Z,94467.00
2023-02-12T06:13:28.251Z,94467.00
2023-02-12T06:14:30.231Z,94469.00
2023-02-12T06:15:28.333Z,94471.00
2023-02-12T06:16:28.467Z,94467.00
2023-02-12T06:17:28.358Z,94469.00
2023-02-12T06:18:28.373Z,94473.00
2023-02-12T06:19:28.387Z,94473.00
2023-02-12T06:20:28.414Z,94471.00
2023-02-12T06:21:28.418Z,94471.00
2023-02-12T06:22:28.428Z,94473.00
2023-02-12T06:23:28.463Z,94475.00
2023-02-12T06:24:28.436Z,94477.00
2023-02-12T06:25:28.447Z,94477.00
2023-02-12T06:26:28.460Z,94477.00
2023-02-12T06:27:28.533Z,94477.00
2023-02-12T06:28:28.518Z,94481.00
2023-02-12T06:29:28.515Z,94481.00
2023-02-12T06:30:28.533Z,94481.00
2023-02-12T06:31:28.719Z,94481.00
2023-02-12T06:32:28.583Z,94481.00
2023-02-12T06:33:28.598Z,94481.00
2023-02-12T06:34:28.616Z,94483.00
2023-02-12T06:35:28.631Z,94479.00
2023-02-12T06:36:28.667Z,94477.00
2023-02-12T06:37:28.672Z,94479.00
2023-02-12T06:38:28.685Z,94479.00
2023-02-12T06:39:28.694Z,94481.00
2023-02-12T06:40:28.705Z,94483.00
2023-02-12T06:41:28.723Z,94483.00
2023-02-12T06:42:28.742Z,94485.00
2023-02-12T06:43:28.745Z,94487.00
2023-02-12T06:44:28.760Z,94485.00
2023-02-12T06:45:28.765Z,94487.00
2023-02-12T06:46:28.818Z,94487.00
2023-02-12T06:47:28.796Z,94487.00
2023-02-12T06:48:28.800Z,94489.00
2023-02-12T06:49:28.811Z,94487.00
2023-02-12T06:50:28.821Z,94490.00
2023-02-12T06:51:28.820Z,94492.00
2023-02-12T06:52:28.836Z,94498.00
2023-02-12T06:53:28.838Z,94498.00
2023-02-12T06:54:28.840Z,94502.00
2023-02-12T06:55:28.851Z,94504.00
2023-02-12T06:56:28.868Z,94504.00
2023-02-12T06:57:28.890Z,94506.00
2023-02-12T06:58:28.930Z,94508.00
2023-02-12T06:59:28.992Z,94508.00
2023-02-12T07:09:29.598Z,94512.00
2023-02-12T07:10:29.672Z,94514.00
2023-02-12T07:11:29.766Z,94512.00
2023-02-12T07:12:29.793Z,94518.00
2023-02-12T07:13:29.869Z,94522.00
2023-02-12T07:14:29.924Z,94522.00
2023-02-12T07:15:29.981Z,94524.00
2023-02-12T07:16:30.089Z,94524.00
2023-02-12T07:17:30.132Z,94524.00
2023-02-12T07:18:30.170Z,94526.00
2023-02-12T07:19:30.230Z,94526.00
2023-02-12T07:20:30.322Z,94528.00
2023-02-12T07:21:30.365Z,94528.00
2023-02-12T07:22:30.433Z,94530.00
2023-02-12T07:23:30.484Z,94528.00
2023-02-12T07:24:30.549Z,94530.00
2023-02-12T07:25:30.625Z,94528.00
2023-02-12T07:26:30.689Z,94528.00
2023-02-12T07:27:30.751Z,94528.00
2023-02-12T07:28:30.859Z,94528.00
2023-02-12T07:29:30.877Z,94526.00
2023-02-12T07:30:31.042Z,94526.00
2023-02-12T07:31:31.150Z,94526.00
2023-02-12T07:32:31.072Z,94528.00
2023-02-12T07:33:31.135Z,94526.00
2023-02-12T07:34:31.182Z,94528.00
2023-02-12T07:35:31.242Z,94530.00
2023-02-12T07:36:31.314Z,94532.00
2023-02-12T07:37:31.372Z,94530.00
2023-02-12T07:38:31.433Z,94532.00
2023-02-12T07:39:31.498Z,94532.00
2023-02-12T07:40:31.546Z,94532.00
2023-02-12T07:41:31.618Z,94530.00
2023-02-12T07:42:31.674Z,94532.00
2023-02-12T07:43:31.729Z,94530.00
2023-02-12T07:44:31.795Z,94528.00
2023-02-12T07:45:31.864Z,94526.00
2023-02-12T07:46:31.904Z,94526.00
2023-02-12T07:47:31.996Z,94526.00
2023-02-12T07:48:32.049Z,94526.00
2023-02-12T07:49:32.118Z,94526.00
2023-02-12T07:50:32.171Z,94528.00
2023-02-12T07:51:32.223Z,94526.00
2023-02-12T07:52:32.294Z,94524.00
2023-02-12T07:53:32.341Z,94524.00
2023-02-12T07:54:32.402Z,94528.00
2023-02-12T07:55:32.460Z,94522.00
2023-02-12T07:56:32.601Z,94526.00
2023-02-12T07:57:32.579Z,94524.00
2023-02-12T07:58:32.640Z,94526.00
2023-02-12T07:59:32.721Z,94528.00
2023-02-12T08:00:32.769Z,94530.00
2023-02-12T08:01:32.837Z,94528.00
2023-02-12T08:02:32.904Z,94528.00
2023-02-12T08:03:32.948Z,94526.00
2023-02-12T08:04:33.097Z,94528.00
2023-02-12T08:05:33.071Z,94524.00
2023-02-12T08:06:33.132Z,94524.00
2023-02-12T08:07:33.189Z,94528.00
2023-02-12T08:08:33.249Z,94522.00
2023-02-12T08:09:33.321Z,94522.00
2023-02-12T08:10:33.391Z,94524.00
2023-02-12T08:11:33.422Z,94522.00
2023-02-12T08:12:33.476Z,94526.00
2023-02-12T08:13:33.528Z,94530.00
2023-02-12T08:14:33.589Z,94528.00
2023-02-12T08:15:33.631Z,94528.00
2023-02-12T08:16:33.738Z,94524.00
2023-02-12T08:17:33.750Z,94524.00
2023-02-12T08:18:33.818Z,94524.00
2023-02-12T08:19:33.898Z,94520.00
2023-02-12T08:20:33.957Z,94520.00
2023-02-12T08:21:34.051Z,94522.00
2023-02-12T08:22:34.095Z,94520.00
2023-02-12T08:23:34.154Z,94526.00
2023-02-12T08:24:34.244Z,94524.00
2023-02-12T08:25:34.303Z,94526.00
2023-02-12T08:26:34.425Z,94524.00
2023-02-12T08:27:34.429Z,94526.00
2023-02-12T08:28:34.622Z,94526.00
2023-02-12T08:29:34.585Z,94522.00
2023-02-12T08:30:34.637Z,94520.00
2023-02-12T08:31:34.740Z,94516.00
2023-02-12T08:32:34.778Z,94514.00
2023-02-12T08:33:34.847Z,94512.00
2023-02-12T08:34:34.912Z,94510.00
2023-02-12T08:35:34.984Z,94514.00
2023-02-12T08:36:35.052Z,94514.00
2023-02-12T08:37:35.117Z,94512.00
2023-02-12T08:38:35.191Z,94512.00
2023-02-12T08:39:35.248Z,94514.00
2023-02-12T08:40:35.385Z,94512.00
2023-02-12T08:41:35.376Z,94510.00
2023-02-12T08:42:35.438Z,94508.00
2023-02-12T08:43:35.499Z,94506.00
2023-02-12T08:44:35.570Z,94504.00
2023-02-12T08:45:35.625Z,94504.00
2023-02-12T08:46:35.774Z,94504.00
2023-02-12T08:47:35.764Z,94502.00
2023-02-12T08:48:35.834Z,94504.00
2023-02-12T08:49:35.897Z,94504.00
2023-02-12T08:50:35.959Z,94502.00
2023-02-12T08:51:36.043Z,94500.00
2023-02-12T08:52:36.105Z,94500.00
2023-02-12T08:53:36.178Z,94498.00
2023-02-12T08:54:36.243Z,94496.00
2023-02-12T08:55:36.314Z,94496.00
2023-02-12T08:56:36.385Z,94496.00
2023-02-12T08:57:36.449Z,94496.00
2023-02-12T08:58:36.525Z,94496.00
2023-02-12T08:59:36.594Z,94500.00
2023-02-12T09:00:38.879Z,94494.00
2023-02-12T09:01:36.736Z,94492.00
2023-02-12T09:02:36.742Z,94496.00
2023-02-12T09:03:36.728Z,94490.00
2023-02-12T09:04:36.749Z,94490.00
2023-02-12T09:05:36.766Z,94490.00
2023-02-12T09:06:36.789Z,94489.00
2023-02-12T09:07:36.811Z,94487.00
2023-02-12T09:08:36.836Z,94489.00
2023-02-12T09:09:36.852Z,94489.00
2023-02-12T09:10:36.878Z,94481.00
2023-02-12T09:11:36.883Z,94483.00
2023-02-12T09:12:36.897Z,94483.00
2023-02-12T09:13:36.908Z,94485.00
2023-02-12T09:14:36.920Z,94485.00
2023-02-12T09:15:36.937Z,94483.00
2023-02-12T09:16:37.006Z,94485.00
2023-02-12T09:17:36.986Z,94483.00
2023-02-12T09:18:37.000Z,94481.00
2023-02-12T09:19:37.025Z,94479.00
2023-02-12T09:20:37.041Z,94477.00
2023-02-12T09:21:37.052Z,94475.00
2023-02-12T09:22:37.075Z,94475.00
2023-02-12T09:23:37.089Z,94475.00
2023-02-12T09:24:37.113Z,94473.00
2023-02-12T09:25:37.132Z,94471.00
2023-02-12T09:26:37.485Z,94473.00
2023-02-12T09:27:37.155Z,94469.00
2023-02-12T09:28:37.229Z,94469.00
2023-02-12T09:29:37.200Z,94467.00
2023-02-12T09:30:37.228Z,94467.00
2023-02-12T09:31:37.391Z,94471.00
2023-02-12T09:32:37.237Z,94469.00
2023-02-12T09:33:37.254Z,94467.00
2023-02-12T09:34:37.269Z,94465.00
2023-02-12T09:35:37.280Z,94463.00
2023-02-12T09:36:37.288Z,94461.00
2023-02-12T09:37:37.306Z,94461.00
2023-02-12T09:38:37.318Z,94461.00
2023-02-12T09:39:37.347Z,94459.00
2023-02-12T09:40:37.349Z,94457.00
2023-02-12T09:41:37.370Z,94455.00
2023-02-12T09:42:37.377Z,94453.00
2023-02-12T09:43:37.391Z,94451.00
2023-02-12T09:44:37.400Z,94453.00
2023-02-12T09:45:37.434Z,94453.00
2023-02-12T09:46:37.508Z,94453.00
2023-02-12T09:47:37.455Z,94451.00
2023-02-12T09:48:37.473Z,94449.00
2023-02-12T09:49:37.496Z,94453.00
2023-02-12T09:50:37.540Z,94449.00
2023-02-12T09:51:37.531Z,94451.00
2023-02-12T09:52:37.572Z,94451.00
2023-02-12T09:53:37.567Z,94449.00
2023-02-12T09:54:37.586Z,94451.00
2023-02-12T09:55:37.612Z,94451.00
2023-02-12T09:56:37.628Z,94449.00
2023-02-12T09:57:37.641Z,94447.00
2023-02-12T12:39:45.156Z,94204.00
2023-02-12T12:40:45.197Z,94208.00
2023-02-12T12:41:45.243Z,94202.00
2023-02-12T12:42:45.291Z,94202.00
2023-02-12T12:43:45.365Z,94202.00
2023-02-12T12:44:45.399Z,94202.00
2023-02-12T12:45:45.498Z,94200.00
2023-02-12T12:46:45.489Z,94198.00
2023-02-12T15:45:55.765Z,94183.00
2023-02-12T15:46:55.237Z,94183.00
2023-02-12T15:47:56.086Z,94183.00
2023-02-12T15:48:55.368Z,94187.00
2023-02-12T15:49:55.408Z,94189.00
2023-02-12T15:50:55.469Z,94187.00
2023-02-12T15:51:55.536Z,94189.00
2023-02-12T15:52:55.593Z,94187.00
2023-02-12T15:53:55.664Z,94191.00
2023-02-12T15:54:55.718Z,94193.00
2023-02-12T15:55:56.203Z,94193.00
2023-02-12T15:56:55.837Z,94194.00
2023-02-12T15:57:55.908Z,94194.00
2023-02-12T15:58:55.970Z,94194.00
2023-02-12T15:59:56.020Z,94194.00
2023-02-12T16:00:56.091Z,94196.00
2023-02-12T16:01:56.198Z,94198.00
2023-02-12T16:02:56.224Z,94198.00
2023-02-12T16:03:56.284Z,94198.00
2023-02-12T16:04:56.350Z,94200.00
2023-02-12T16:05:56.749Z,94198.00
2023-02-12T16:06:56.449Z,94200.00
2023-02-12T16:07:56.529Z,94204.00
2023-02-12T16:08:56.555Z,94204.00
2023-02-12T16:09:56.619Z,94204.00
2023-02-12T16:10:56.687Z,94204.00
2023-02-12T16:11:56.742Z,94206.00
2023-02-12T16:12:56.815Z,94208.00
2023-02-12T16:13:56.859Z,94210.00
2023-02-12T16:14:56.930Z,94210.00
2023-02-12T16:15:57.349Z,94210.00
2023-02-12T16:16:57.080Z,94210.00
2023-02-12T16:17:57.109Z,94212.00
2023-02-12T16:18:57.158Z,94214.00
2023-02-12T16:19:57.216Z,94216.00
2023-02-12T16:20:57.279Z,94216.00
2023-02-12T16:21:57.330Z,94218.00
2023-02-12T16:22:57.398Z,94220.00
2023-02-12T16:23:57.460Z,94222.00
2023-02-12T16:24:57.527Z,94222.00
2023-02-12T16:25:57.800Z,94224.00
2023-02-12T16:26:57.647Z,94226.00
2023-02-12T16:27:57.699Z,94228.00
2023-02-12T16:28:57.767Z,94232.00
2023-02-12T16:29:57.829Z,94234.00
2023-02-12T16:30:57.924Z,94238.00
2023-02-12T16:31:58.047Z,94240.00
2023-02-12T16:32:57.999Z,94238.00
2023-02-12T16:33:58.612Z,94243.00
2023-02-12T16:34:58.118Z,94245.00
2023-02-12T16:35:58.419Z,94247.00
2023-02-12T16:36:58.247Z,94249.00
2023-02-12T16:37:58.315Z,94255.00
2023-02-12T16:38:58.364Z,94255.00
2023-02-12T16:39:58.418Z,94253.00
2023-02-12T16:40:58.483Z,94255.00
2023-02-12T16:41:58.549Z,94257.00
2023-02-12T16:42:58.608Z,94259.00
2023-02-12T16:43:58.676Z,94259.00
2023-02-12T16:44:58.737Z,94261.00
2023-02-12T16:45:59.232Z,94263.00
2023-02-12T16:46:58.858Z,94263.00
2023-02-12T16:47:58.914Z,94265.00
2023-02-12T16:48:59.000Z,94265.00
2023-02-12T16:49:59.075Z,94267.00
2023-02-12T16:50:59.111Z,94271.00
2023-02-12T16:51:59.165Z,94273.00
2023-02-12T16:52:59.232Z,94273.00
2023-02-12T16:53:59.303Z,94273.00
2023-02-12T16:54:59.360Z,94273.00
2023-02-12T16:55:59.639Z,94277.00
2023-02-12T16:56:59.494Z,94279.00
2023-02-12T16:57:59.553Z,94279.00
2023-02-12T16:58:59.609Z,94281.00
2023-02-12T16:59:59.681Z,94281.00
2023-02-12T17:00:59.773Z,94281.00
2023-02-12T17:01:59.824Z,94283.00
2023-02-12T17:02:59.907Z,94287.00
2023-02-12T17:03:59.941Z,94287.00
2023-02-12T17:04:59.994Z,94287.00
2023-02-12T17:06:00.123Z,94287.00
2023-02-12T17:07:00.116Z,94291.00
2023-02-12T17:08:00.185Z,94289.00
2023-02-12T17:09:00.231Z,94293.00
2023-02-12T17:10:00.291Z,94291.00
2023-02-12T17:11:00.355Z,94295.00
2023-02-12T17:12:00.399Z,94293.00
2023-02-12T17:13:00.467Z,94293.00
2023-02-12T17:14:00.520Z,94293.00
2023-02-12T17:15:00.582Z,94293.00
2023-02-12T17:16:00.914Z,94295.00
2023-02-12T17:17:00.749Z,94296.00
2023-02-12T17:18:00.784Z,94296.00
2023-02-12T17:19:00.838Z,94298.00
2023-02-12T17:20:00.902Z,94298.00
2023-02-12T17:21:00.972Z,94298.00
2023-02-12T17:22:01.017Z,94302.00
2023-02-12T17:23:01.081Z,94304.00
2023-02-12T17:24:01.195Z,94304.00
2023-02-12T17:25:01.204Z,94306.00
2023-02-12T17:26:01.279Z,94304.00
2023-02-12T17:27:01.338Z,94304.00
2023-02-12T17:28:01.459Z,94304.00
2023-02-12T17:29:01.484Z,94306.00
2023-02-12T17:30:01.548Z,94306.00
2023-02-12T17:31:01.640Z,94304.00
2023-02-12T17:32:01.714Z,94304.00
2023-02-12T17:33:01.753Z,94306.00
2023-02-12T17:34:01.817Z,94308.00
2023-02-12T17:35:01.881Z,94312.00
2023-02-12T17:36:01.953Z,94314.00
2023-02-12T17:37:02.013Z,94316.00
2023-02-12T17:38:02.085Z,94318.00
2023-02-12T17:39:02.153Z,94320.00
2023-02-12T17:40:02.214Z,94320.00
2023-02-12T17:41:02.290Z,94320.00
2023-02-12T17:42:02.352Z,94322.00
2023-02-12T17:43:02.420Z,94324.00
2023-02-12T17:44:02.479Z,94326.00
2023-02-12T17:45:02.544Z,94326.00
2023-02-12T17:46:02.654Z,94326.00
2023-02-12T17:47:02.679Z,94324.00
2023-02-12T17:48:02.742Z,94334.00
2023-02-12T17:49:02.820Z,94330.00
2023-02-12T17:50:02.898Z,94332.00
2023-02-12T17:51:02.941Z,94332.00
2023-02-12T17:52:04.721Z,94336.00
2023-02-12T17:53:03.007Z,94338.00
2023-02-12T17:54:03.022Z,94340.00
2023-02-12T17:55:03.033Z,94340.00
2023-02-12T17:56:03.052Z,94342.00
2023-02-12T17:57:03.068Z,94343.00
2023-02-12T17:58:03.078Z,94345.00
2023-02-12T17:59:03.119Z,94347.00
2023-02-12T18:00:03.123Z,94347.00
2023-02-12T18:01:03.152Z,94349.00
2023-02-12T18:02:03.159Z,94351.00
2023-02-12T18:03:03.130Z,94349.00
2023-02-12T18:04:03.160Z,94353.00
2023-02-12T18:05:03.170Z,94355.00
2023-02-12T18:06:03.185Z,94355.00
2023-02-12T18:07:03.203Z,94357.00
2023-02-12T18:08:03.211Z,94359.00
2023-02-12T18:09:03.246Z,94359.00
2023-02-12T18:10:03.283Z,94359.00
2023-02-12T18:11:03.271Z,94361.00
2023-02-12T18:12:03.286Z,94365.00
2023-02-12T18:13:03.307Z,94363.00
2023-02-12T18:14:03.343Z,94365.00
2023-02-12T18:17:03.387Z,94365.00
2023-02-12T18:18:03.403Z,94373.00
2023-02-12T18:19:03.533Z,94365.00
2023-02-12T18:20:03.536Z,94373.00
2023-02-12T18:21:03.467Z,94377.00
2023-02-12T18:22:03.497Z,94373.00
2023-02-12T18:23:03.524Z,94373.00
2023-02-12T18:24:03.548Z,94375.00
2023-02-12T18:25:03.617Z,94375.00
2023-02-12T18:26:03.539Z,94377.00
2023-02-12T18:27:03.558Z,94377.00
2023-02-12T18:28:03.565Z,94377.00
2023-02-12T18:30:03.726Z,94377.00
2023-02-12T18:31:03.696Z,94377.00
2023-02-12T18:32:03.606Z,94379.00
2023-02-12T18:33:03.608Z,94379.00
2023-02-12T18:34:03.613Z,94379.00
2023-02-12T18:35:03.617Z,94381.00
2023-02-12T18:36:03.624Z,94383.00
2023-02-12T18:37:03.631Z,94387.00
2023-02-12T18:38:03.656Z,94385.00
2023-02-12T18:39:03.643Z,94383.00
2023-02-12T18:40:03.661Z,94387.00
2023-02-12T18:41:03.665Z,94383.00
2023-02-12T18:42:03.687Z,94385.00
2023-02-12T18:43:03.697Z,94387.00
2023-02-12T18:44:03.709Z,94388.00
2023-02-12T18:45:03.724Z,94388.00
2023-02-12T18:46:03.828Z,94390.00
2023-02-12T18:47:03.840Z,94390.00
2023-02-12T19:09:05.149Z,94398.00
2023-02-12T19:10:05.220Z,94398.00
2023-02-12T19:11:05.260Z,94398.00
2023-02-12T19:12:05.318Z,94396.00
2023-02-12T19:13:05.388Z,94396.00
2023-02-12T19:14:05.432Z,94394.00
2023-02-12T19:15:05.501Z,94396.00
2023-02-12T19:16:05.609Z,94396.00
2023-02-12T19:17:05.664Z,94396.00
2023-02-12T19:18:05.676Z,94398.00
2023-02-12T19:19:05.706Z,94400.00
2023-02-12T19:20:05.775Z,94398.00
2023-02-12T19:21:05.822Z,94396.00
2023-02-12T19:22:05.890Z,94396.00
2023-02-12T19:23:05.928Z,94396.00
2023-02-12T19:24:05.991Z,94398.00
2023-02-12T19:25:06.043Z,94396.00
2023-02-12T19:26:06.095Z,94398.00
2023-02-12T19:27:06.160Z,94398.00